Time;durP1;ratioP1;P1;durP2;ratioP2;P2;SDS_P1;SDS_P2;PMS_P1;PMS_P2;Temp;Humidity;BMP_temperature;BMP_pressure;BME280_temperature;BME280_humidity;BME280_pressure;Samples;Min_cycle;Max_cycle;Signal;HPM_P1;HPM_P2
2023/03/07 00:01:24;;;;;;;61.40;38.25;;;;;;;;;;5063108;28;20415;-83
2023/03/07 00:03:50;;;;;;;64.25;38.22;;;;;;;;;;5068479;28;20417;-83
2023/03/07 00:06:18;;;;;;;66.93;39.83;;;;;;;;;;5061121;28;20429;-83
2023/03/07 00:08:45;;;;;;;68.13;38.90;;;;;;;;;;5063044;28;20897;-83
2023/03/07 00:11:12;;;;;;;66.68;39.47;;;;;;;;;;5064113;28;20802;-82
2023/03/07 00:13:39;;;;;;;63.20;37.83;;;;;;;;;;5063582;28;20814;-83
2023/03/07 00:16:06;;;;;;;69.60;39.47;;;;;;;;;;5060734;28;20420;-83
2023/03/07 00:18:33;;;;;;;67.32;39.67;;;;;;;;;;5063378;28;20416;-83
2023/03/07 00:21:00;;;;;;;68.88;39.58;;;;;;;;;;5064211;28;20412;-83
2023/03/07 00:23:27;;;;;;;64.53;39.78;;;;;;;;;;5064319;28;20435;-83
2023/03/07 00:25:58;;;;;;;67.47;39.75;;;;;;;;;;5064410;28;20422;-83
2023/03/07 00:28:24;;;;;;;69.22;40.60;;;;;;;;;;5062270;28;20431;-83
2023/03/07 00:30:50;;;;;;;63.43;38.40;;;;;;;;;;5063731;28;20424;-82
2023/03/07 00:33:17;;;;;;;59.72;37.85;;;;;;;;;;5061982;28;20403;-83
2023/03/07 00:35:43;;;;;;;61.38;36.65;;;;;;;;;;5062968;28;20422;-82
2023/03/07 00:38:09;;;;;;;56.10;35.60;;;;;;;;;;5058427;28;20415;-84
2023/03/07 00:40:37;;;;;;;56.65;35.08;;;;;;;;;;5060987;28;20420;-82
2023/03/07 00:43:04;;;;;;;58.55;34.85;;;;;;;;;;5058664;28;20431;-82
2023/03/07 00:45:30;;;;;;;54.92;32.85;;;;;;;;;;5061769;28;20418;-82
2023/03/07 00:47:56;;;;;;;55.35;32.45;;;;;;;;;;5063116;28;20426;-83
2023/03/07 00:50:23;;;;;;;59.08;34.42;;;;;;;;;;5060516;28;20422;-83
2023/03/07 00:52:49;;;;;;;55.13;33.13;;;;;;;;;;5060696;28;20538;-82
2023/03/07 00:55:16;;;;;;;55.87;33.30;;;;;;;;;;5061275;28;20416;-82
2023/03/07 00:57:44;;;;;;;55.50;34.05;;;;;;;;;;5061169;28;20440;-82
2023/03/07 01:00:11;;;;;;;55.05;33.80;;;;;;;;;;5060514;28;20424;-82
2023/03/07 01:02:37;;;;;;;51.05;31.20;;;;;;;;;;5061989;28;20420;-83
2023/03/07 01:05:04;;;;;;;50.83;30.52;;;;;;;;;;5061741;28;20438;-83
2023/03/07 01:07:30;;;;;;;41.50;27.23;;;;;;;;;;5063062;28;20427;-82
2023/03/07 01:09:58;;;;;;;43.65;27.50;;;;;;;;;;5063256;28;20416;-82
2023/03/07 01:12:24;;;;;;;45.92;28.67;;;;;;;;;;5061524;28;20435;-83
2023/03/07 01:14:52;;;;;;;43.03;26.95;;;;;;;;;;5061394;28;20416;-82
2023/03/07 01:17:20;;;;;;;43.10;27.50;;;;;;;;;;5062136;28;20429;-82
2023/03/07 01:19:46;;;;;;;40.22;24.17;;;;;;;;;;5063385;28;20411;-83
2023/03/07 01:22:12;;;;;;;39.80;24.50;;;;;;;;;;5062979;28;20426;-82
2023/03/07 01:24:39;;;;;;;40.17;25.88;;;;;;;;;;5063033;28;20431;-83
2023/03/07 01:27:05;;;;;;;36.53;23.20;;;;;;;;;;5065920;28;20427;-82
2023/03/07 01:29:32;;;;;;;36.22;22.70;;;;;;;;;;5065384;28;20427;-83
2023/03/07 01:32:00;;;;;;;39.58;23.73;;;;;;;;;;5065823;28;20428;-83
2023/03/07 01:34:28;;;;;;;35.10;20.98;;;;;;;;;;5063341;28;20425;-83
2023/03/07 01:36:54;;;;;;;36.90;22.33;;;;;;;;;;5063116;28;20415;-82
2023/03/07 01:39:21;;;;;;;38.40;22.50;;;;;;;;;;5061833;28;20427;-82
2023/03/07 01:41:48;;;;;;;33.60;21.70;;;;;;;;;;5060717;28;20926;-82
2023/03/07 01:44:16;;;;;;;38.40;23.27;;;;;;;;;;5065062;28;20425;-82
2023/03/07 01:46:44;;;;;;;36.72;22.85;;;;;;;;;;5061950;28;20418;-83
2023/03/07 01:49:15;;;;;;;31.83;21.08;;;;;;;;;;5063648;28;20507;-82
2023/03/07 01:51:44;;;;;;;33.63;21.55;;;;;;;;;;5063445;28;20492;-84
2023/03/07 01:54:12;;;;;;;32.10;20.80;;;;;;;;;;5066027;28;20423;-83
2023/03/07 01:56:38;;;;;;;31.50;19.80;;;;;;;;;;5069092;28;20454;-82
2023/03/07 01:59:05;;;;;;;34.15;20.35;;;;;;;;;;5067140;28;20431;-83
2023/03/07 02:01:32;;;;;;;28.83;17.45;;;;;;;;;;5064558;28;20431;-83
2023/03/07 02:04:00;;;;;;;26.17;17.05;;;;;;;;;;5065802;28;20427;-82
2023/03/07 02:06:30;;;;;;;26.77;17.55;;;;;;;;;;5067807;28;20796;-83
2023/03/07 02:08:56;;;;;;;27.65;17.27;;;;;;;;;;5067670;28;20439;-82
2023/03/07 02:11:23;;;;;;;26.02;16.48;;;;;;;;;;5066276;28;20419;-82
2023/03/07 02:13:50;;;;;;;25.10;15.98;;;;;;;;;;5068043;28;20425;-82
2023/03/07 02:16:17;;;;;;;21.77;15.33;;;;;;;;;;5067714;28;20424;-82
2023/03/07 02:18:44;;;;;;;20.73;14.70;;;;;;;;;;5067307;28;20429;-82
2023/03/07 02:21:16;;;;;;;23.33;15.00;;;;;;;;;;5069637;28;20430;-83
2023/03/07 02:23:47;;;;;;;21.63;14.45;;;;;;;;;;5065490;28;21029;-82
2023/03/07 02:26:16;;;;;;;19.05;13.75;;;;;;;;;;5067616;28;20420;-82
2023/03/07 02:28:46;;;;;;;20.95;14.07;;;;;;;;;;5064741;28;20423;-82
2023/03/07 02:31:12;;;;;;;21.00;13.95;;;;;;;;;;5066505;28;20424;-82
2023/03/07 02:33:38;;;;;;;20.98;12.70;;;;;;;;;;5067910;28;20430;-82
2023/03/07 02:36:06;;;;;;;22.70;13.60;;;;;;;;;;5067490;28;20421;-82
2023/03/07 02:38:36;;;;;;;21.48;12.90;;;;;;;;;;5065512;28;20419;-82
2023/03/07 02:41:04;;;;;;;19.73;13.50;;;;;;;;;;5070795;28;20423;-83
2023/03/07 02:43:30;;;;;;;20.73;12.60;;;;;;;;;;5068367;28;20424;-83
2023/03/07 02:45:58;;;;;;;19.50;12.32;;;;;;;;;;5065324;28;20428;-82
2023/03/07 02:48:25;;;;;;;17.47;12.23;;;;;;;;;;5070121;28;20429;-82
2023/03/07 02:50:51;;;;;;;18.50;10.65;;;;;;;;;;5062938;28;20426;-82
2023/03/07 02:53:17;;;;;;;18.48;10.88;;;;;;;;;;5070042;28;20442;-82
2023/03/07 02:55:44;;;;;;;14.60;9.52;;;;;;;;;;5062025;28;20417;-82
2023/03/07 02:58:10;;;;;;;16.05;10.18;;;;;;;;;;5066523;28;20423;-82
2023/03/07 03:00:36;;;;;;;13.68;9.30;;;;;;;;;;5065392;28;20409;-82
2023/03/07 03:03:04;;;;;;;13.18;8.77;;;;;;;;;;5064599;28;20449;-82
2023/03/07 03:05:31;;;;;;;15.65;9.18;;;;;;;;;;5065584;28;20433;-82
2023/03/07 03:07:57;;;;;;;13.32;7.93;;;;;;;;;;5067932;28;20422;-82
2023/03/07 03:10:24;;;;;;;10.93;7.65;;;;;;;;;;5064956;28;20417;-82
2023/03/07 03:12:50;;;;;;;11.48;7.10;;;;;;;;;;5065528;28;20419;-83
2023/03/07 03:15:17;;;;;;;13.75;7.25;;;;;;;;;;5062628;28;20431;-82
2023/03/07 03:17:43;;;;;;;9.63;6.50;;;;;;;;;;5062950;28;20891;-82
2023/03/07 03:20:12;;;;;;;13.20;6.17;;;;;;;;;;5064870;28;20681;-82
2023/03/07 03:22:38;;;;;;;9.52;5.40;;;;;;;;;;5068054;28;20403;-83
2023/03/07 03:25:05;;;;;;;9.23;5.70;;;;;;;;;;5064336;28;20411;-82
2023/03/07 03:27:32;;;;;;;6.80;4.82;;;;;;;;;;5064078;28;20431;-82
2023/03/07 03:29:58;;;;;;;8.93;5.25;;;;;;;;;;5062203;28;20812;-82
2023/03/07 03:32:24;;;;;;;9.48;4.70;;;;;;;;;;5064264;28;20408;-82
2023/03/07 03:34:50;;;;;;;7.33;3.80;;;;;;;;;;5064520;28;20414;-83
2023/03/07 03:37:19;;;;;;;10.50;4.50;;;;;;;;;;5064276;28;20433;-82
2023/03/07 03:39:45;;;;;;;8.10;4.22;;;;;;;;;;5062218;28;20413;-82
2023/03/07 03:42:12;;;;;;;10.85;4.80;;;;;;;;;;5065328;28;20411;-82
2023/03/07 03:44:39;;;;;;;11.35;4.13;;;;;;;;;;5064637;28;20457;-82
2023/03/07 03:47:05;;;;;;;8.45;3.30;;;;;;;;;;5064022;28;20906;-82
2023/03/07 03:49:32;;;;;;;10.65;4.00;;;;;;;;;;5061360;28;20423;-82
2023/03/07 03:51:59;;;;;;;8.95;3.55;;;;;;;;;;5066454;28;20418;-82
2023/03/07 03:54:26;;;;;;;7.30;3.60;;;;;;;;;;5063972;28;20419;-82
2023/03/07 03:56:53;;;;;;;6.88;3.72;;;;;;;;;;5068132;28;20421;-82
2023/03/07 03:59:21;;;;;;;8.68;3.72;;;;;;;;;;5062801;28;20418;-83
2023/03/07 04:01:47;;;;;;;7.40;3.15;;;;;;;;;;5063170;28;20934;-83
2023/03/07 04:04:14;;;;;;;8.93;3.15;;;;;;;;;;5067030;28;20423;-82
2023/03/07 04:06:41;;;;;;;9.30;3.38;;;;;;;;;;5063967;28;20978;-83
2023/03/07 04:09:08;;;;;;;7.63;2.90;;;;;;;;;;5065310;28;20435;-82
2023/03/07 04:11:36;;;;;;;8.15;3.60;;;;;;;;;;5064018;28;20498;-82
2023/03/07 04:14:02;;;;;;;7.50;3.13;;;;;;;;;;5064133;28;21471;-82
2023/03/07 04:16:29;;;;;;;8.80;3.20;;;;;;;;;;5062040;28;20428;-82
2023/03/07 04:18:55;;;;;;;9.30;3.40;;;;;;;;;;5065340;28;20940;-82
2023/03/07 04:21:22;;;;;;;7.30;3.00;;;;;;;;;;5060867;28;20837;-82
2023/03/07 04:23:54;;;;;;;11.65;3.45;;;;;;;;;;5062843;28;20435;-83
2023/03/07 04:26:20;;;;;;;5.63;3.00;;;;;;;;;;5062833;28;20435;-82
2023/03/07 04:28:48;;;;;;;5.15;2.83;;;;;;;;;;5063565;28;20413;-82
2023/03/07 04:31:16;;;;;;;8.97;3.10;;;;;;;;;;5061058;28;20474;-82
2023/03/07 04:33:42;;;;;;;6.57;2.53;;;;;;;;;;5063980;28;20403;-83
2023/03/07 04:36:09;;;;;;;4.97;2.70;;;;;;;;;;5064435;28;20424;-82
2023/03/07 04:38:37;;;;;;;4.70;2.90;;;;;;;;;;5065654;28;20496;-82
2023/03/07 04:41:04;;;;;;;6.72;2.88;;;;;;;;;;5066122;28;20789;-83
2023/03/07 04:43:30;;;;;;;10.27;3.85;;;;;;;;;;5066910;28;20427;-83
2023/03/07 04:45:59;;;;;;;10.93;2.80;;;;;;;;;;5066403;28;20436;-82
2023/03/07 04:48:26;;;;;;;7.38;2.40;;;;;;;;;;5067545;28;20415;-83
2023/03/07 04:50:54;;;;;;;8.70;3.40;;;;;;;;;;5064141;28;20415;-82
2023/03/07 04:53:20;;;;;;;10.15;2.65;;;;;;;;;;5066983;28;20408;-82
2023/03/07 04:55:46;;;;;;;7.05;2.60;;;;;;;;;;5061561;28;20448;-82
2023/03/07 04:58:13;;;;;;;7.80;2.63;;;;;;;;;;5065769;28;20424;-82
2023/03/07 05:00:40;;;;;;;7.53;2.50;;;;;;;;;;5063432;28;20423;-82
2023/03/07 05:03:08;;;;;;;7.78;2.10;;;;;;;;;;5064440;28;20423;-83
2023/03/07 05:05:34;;;;;;;9.23;2.42;;;;;;;;;;5062318;28;20434;-82
2023/03/07 05:08:00;;;;;;;7.15;2.60;;;;;;;;;;5065809;28;20420;-83
2023/03/07 05:10:28;;;;;;;5.82;2.20;;;;;;;;;;5064199;28;20416;-82
2023/03/07 05:12:54;;;;;;;6.22;2.40;;;;;;;;;;5057443;28;20478;-82
2023/03/07 05:15:21;;;;;;;7.72;2.60;;;;;;;;;;5063676;28;20417;-83
2023/03/07 05:17:47;;;;;;;6.90;2.83;;;;;;;;;;5063839;28;20428;-82
2023/03/07 05:20:15;;;;;;;11.48;2.50;;;;;;;;;;5063096;28;20426;-83
2023/03/07 05:22:43;;;;;;;7.82;2.75;;;;;;;;;;5062997;28;20439;-82
2023/03/07 05:25:09;;;;;;;5.10;2.10;;;;;;;;;;5066083;28;20417;-82
2023/03/07 05:27:36;;;;;;;7.45;2.15;;;;;;;;;;5065988;28;20423;-82
2023/03/07 05:30:02;;;;;;;8.13;2.70;;;;;;;;;;5065245;28;20413;-83
2023/03/07 05:32:29;;;;;;;11.00;2.70;;;;;;;;;;5063794;28;20425;-82
2023/03/07 05:34:55;;;;;;;9.70;2.20;;;;;;;;;;5060749;28;20435;-83
2023/03/07 05:37:23;;;;;;;8.77;2.13;;;;;;;;;;5065448;28;20428;-82
2023/03/07 05:39:49;;;;;;;6.53;2.60;;;;;;;;;;5062116;28;20422;-83
2023/03/07 05:42:16;;;;;;;8.30;2.00;;;;;;;;;;5065799;28;20413;-82
2023/03/07 05:44:42;;;;;;;9.10;2.22;;;;;;;;;;5061496;28;20436;-83
2023/03/07 05:47:09;;;;;;;14.23;2.50;;;;;;;;;;5065229;28;20793;-83
2023/03/07 05:49:35;;;;;;;6.97;1.70;;;;;;;;;;5059169;28;20431;-82
2023/03/07 05:52:02;;;;;;;6.63;2.38;;;;;;;;;;5061067;28;20452;-83
2023/03/07 05:54:29;;;;;;;10.30;1.80;;;;;;;;;;5062393;28;20782;-82
2023/03/07 05:56:56;;;;;;;8.68;2.03;;;;;;;;;;5062307;28;20433;-82
2023/03/07 05:59:23;;;;;;;11.38;2.63;;;;;;;;;;5061261;28;20429;-83
2023/03/07 06:01:49;;;;;;;10.50;2.20;;;;;;;;;;5063106;28;20435;-83
2023/03/07 06:04:15;;;;;;;8.27;2.13;;;;;;;;;;5059692;28;20502;-83
2023/03/07 06:06:42;;;;;;;12.65;2.15;;;;;;;;;;5060753;28;20424;-83
2023/03/07 06:09:09;;;;;;;9.40;2.30;;;;;;;;;;5065436;28;20810;-82
2023/03/07 06:11:36;;;;;;;9.60;2.22;;;;;;;;;;5063427;28;20432;-82
2023/03/07 06:14:03;;;;;;;6.25;1.63;;;;;;;;;;5062717;28;20939;-82
2023/03/07 06:16:29;;;;;;;8.48;2.10;;;;;;;;;;5062807;28;20423;-83
2023/03/07 06:18:55;;;;;;;18.08;2.22;;;;;;;;;;5063016;28;20474;-82
2023/03/07 06:21:22;;;;;;;4.45;1.40;;;;;;;;;;5060039;28;20421;-83
2023/03/07 06:23:48;;;;;;;10.18;2.22;;;;;;;;;;5060537;28;20916;-82
2023/03/07 06:26:15;;;;;;;6.68;1.67;;;;;;;;;;5061803;28;20432;-83
2023/03/07 06:28:43;;;;;;;13.55;2.10;;;;;;;;;;5065363;28;20442;-82
2023/03/07 06:31:10;;;;;;;6.80;2.00;;;;;;;;;;5060156;28;20428;-82
2023/03/07 06:33:37;;;;;;;13.20;2.53;;;;;;;;;;5063684;28;20451;-81
2023/03/07 06:36:05;;;;;;;7.17;2.10;;;;;;;;;;5064060;28;20439;-82
2023/03/07 06:38:31;;;;;;;8.60;3.73;;;;;;;;;;5062712;28;20907;-82
2023/03/07 06:40:58;;;;;;;8.00;2.40;;;;;;;;;;5063062;28;20417;-81
2023/03/07 06:43:25;;;;;;;9.10;2.35;;;;;;;;;;5074476;28;20451;-80
2023/03/07 06:45:53;;;;;;;7.90;2.05;;;;;;;;;;5068901;28;20416;-80
2023/03/07 06:48:19;;;;;;;5.70;2.10;;;;;;;;;;5068894;28;20785;-83
2023/03/07 06:50:45;;;;;;;7.07;2.13;;;;;;;;;;5065249;28;20413;-82
2023/03/07 06:53:12;;;;;;;8.07;2.42;;;;;;;;;;5071614;28;20924;-80
2023/03/07 06:55:38;;;;;;;7.18;2.05;;;;;;;;;;5066504;28;20445;-82
2023/03/07 06:58:05;;;;;;;8.02;1.92;;;;;;;;;;5068076;28;20429;-83
2023/03/07 07:00:31;;;;;;;7.10;1.90;;;;;;;;;;5067604;28;20420;-82
2023/03/07 07:02:59;;;;;;;9.13;1.80;;;;;;;;;;5072420;28;20449;-81
2023/03/07 07:05:25;;;;;;;5.85;2.10;;;;;;;;;;5065656;28;20424;-82
2023/03/07 07:07:52;;;;;;;6.20;2.13;;;;;;;;;;5069294;28;20492;-82
2023/03/07 07:10:18;;;;;;;10.45;2.30;;;;;;;;;;5065287;28;20414;-81
2023/03/07 07:12:46;;;;;;;9.63;2.40;;;;;;;;;;5068758;28;20424;-81
2023/03/07 07:15:12;;;;;;;8.38;2.50;;;;;;;;;;5066618;28;20418;-83
2023/03/07 07:17:39;;;;;;;9.03;2.20;;;;;;;;;;5069279;28;20412;-82
2023/03/07 07:20:10;;;;;;;6.72;2.13;;;;;;;;;;5070001;28;20422;-82
2023/03/07 07:22:36;;;;;;;9.73;2.30;;;;;;;;;;5066559;28;20421;-82
2023/03/07 07:25:05;;;;;;;7.88;2.38;;;;;;;;;;5066988;28;20537;-81
2023/03/07 07:27:31;;;;;;;11.85;2.00;;;;;;;;;;5070906;28;20411;-82
2023/03/07 07:29:57;;;;;;;7.93;1.80;;;;;;;;;;5066001;28;20415;-83
2023/03/07 07:32:24;;;;;;;8.02;2.60;;;;;;;;;;5068060;28;20972;-83
2023/03/07 07:34:50;;;;;;;5.10;2.53;;;;;;;;;;5065290;28;20416;-83
2023/03/07 07:37:18;;;;;;;10.70;3.00;;;;;;;;;;5067205;28;20416;-80
2023/03/07 07:39:45;;;;;;;10.70;2.63;;;;;;;;;;5067204;28;20444;-80
2023/03/07 07:42:11;;;;;;;11.05;2.30;;;;;;;;;;5067934;28;20415;-82
2023/03/07 07:44:38;;;;;;;9.00;1.90;;;;;;;;;;5047340;28;20420;-81
2023/03/07 07:47:04;;;;;;;6.50;1.70;;;;;;;;;;5066499;28;20849;-79
2023/03/07 07:49:31;;;;;;;7.32;1.80;;;;;;;;;;5063442;28;20422;-83
2023/03/07 07:51:57;;;;;;;6.25;1.92;;;;;;;;;;5068956;28;20418;-82
2023/03/07 07:54:25;;;;;;;6.65;1.70;;;;;;;;;;5066517;28;20417;-83
2023/03/07 07:56:51;;;;;;;6.10;1.65;;;;;;;;;;5062778;28;20424;-82
2023/03/07 07:59:18;;;;;;;7.60;1.90;;;;;;;;;;5067315;28;20417;-82
2023/03/07 08:01:44;;;;;;;4.93;1.80;;;;;;;;;;5066571;28;20414;-82
2023/03/07 08:04:11;;;;;;;8.65;2.65;;;;;;;;;;5066078;28;20416;-81
2023/03/07 08:06:37;;;;;;;5.97;1.88;;;;;;;;;;5064283;28;20405;-82
2023/03/07 08:09:04;;;;;;;7.15;1.75;;;;;;;;;;5060878;28;20433;-82
2023/03/07 08:11:32;;;;;;;6.18;2.00;;;;;;;;;;5063242;28;20421;-82
2023/03/07 08:13:58;;;;;;;8.48;2.50;;;;;;;;;;5062617;28;20432;-82
2023/03/07 08:16:25;;;;;;;8.40;2.10;;;;;;;;;;5061949;28;20781;-82
2023/03/07 08:18:52;;;;;;;9.43;2.78;;;;;;;;;;5063054;28;20421;-82
2023/03/07 08:21:20;;;;;;;13.65;2.78;;;;;;;;;;5064870;28;20416;-82
2023/03/07 08:23:46;;;;;;;6.78;2.10;;;;;;;;;;5062740;28;20428;-82
2023/03/07 08:26:13;;;;;;;8.93;1.90;;;;;;;;;;5066631;28;20504;-82
2023/03/07 08:28:41;;;;;;;5.00;2.40;;;;;;;;;;5063140;28;20423;-82
2023/03/07 08:31:10;;;;;;;7.03;2.43;;;;;;;;;;5067576;28;20475;-84
2023/03/07 08:33:36;;;;;;;9.38;1.90;;;;;;;;;;5063632;28;20419;-81
2023/03/07 08:36:03;;;;;;;7.80;2.30;;;;;;;;;;5063713;28;20435;-82
2023/03/07 08:38:30;;;;;;;8.73;2.10;;;;;;;;;;5067340;28;20774;-82
2023/03/07 08:40:59;;;;;;;14.05;3.28;;;;;;;;;;5068423;28;20500;-82
2023/03/07 08:43:25;;;;;;;6.88;2.20;;;;;;;;;;5065265;28;20915;-82
2023/03/07 08:45:53;;;;;;;6.25;1.95;;;;;;;;;;5065963;28;20415;-82
2023/03/07 08:48:19;;;;;;;6.70;1.90;;;;;;;;;;5065941;28;20438;-83
2023/03/07 08:50:46;;;;;;;7.70;2.35;;;;;;;;;;5062064;28;20488;-82
2023/03/07 08:53:13;;;;;;;12.20;2.40;;;;;;;;;;5063506;28;20499;-81
2023/03/07 08:55:39;;;;;;;11.50;2.42;;;;;;;;;;5063704;28;20422;-83
2023/03/07 08:58:06;;;;;;;8.18;1.88;;;;;;;;;;5066468;28;20436;-82
2023/03/07 09:00:32;;;;;;;5.57;1.60;;;;;;;;;;5064349;28;20417;-82
2023/03/07 09:03:01;;;;;;;5.93;1.70;;;;;;;;;;5066364;28;20805;-83
2023/03/07 09:05:29;;;;;;;5.10;1.43;;;;;;;;;;5063555;28;20428;-82
2023/03/07 09:07:57;;;;;;;8.57;2.20;;;;;;;;;;5062972;28;21041;-82
2023/03/07 09:10:23;;;;;;;7.07;2.43;;;;;;;;;;5061399;28;20473;-83
2023/03/07 09:12:51;;;;;;;10.57;2.55;;;;;;;;;;5065948;28;20440;-83
2023/03/07 09:15:18;;;;;;;7.00;1.88;;;;;;;;;;5063772;28;20419;-82
2023/03/07 09:17:44;;;;;;;9.15;2.20;;;;;;;;;;5063442;28;20926;-82
2023/03/07 09:20:14;;;;;;;10.35;2.60;;;;;;;;;;5062628;28;20426;-82
2023/03/07 09:22:40;;;;;;;11.37;2.40;;;;;;;;;;5062540;28;20974;-82
2023/03/07 09:25:07;;;;;;;6.55;1.98;;;;;;;;;;5060907;28;20412;-82
2023/03/07 09:27:34;;;;;;;4.82;1.70;;;;;;;;;;5065657;28;20906;-83
2023/03/07 09:30:01;;;;;;;7.53;2.22;;;;;;;;;;5065007;28;20424;-82
2023/03/07 09:32:27;;;;;;;7.47;1.70;;;;;;;;;;5065893;28;20424;-82
2023/03/07 09:34:54;;;;;;;5.90;1.80;;;;;;;;;;5063066;28;20413;-84
2023/03/07 09:37:21;;;;;;;8.05;1.95;;;;;;;;;;5064877;28;20406;-82
2023/03/07 09:39:48;;;;;;;11.48;2.88;;;;;;;;;;5060161;28;20409;-83
2023/03/07 09:42:20;;;;;;;13.07;2.60;;;;;;;;;;5061289;28;20413;-82
2023/03/07 09:44:54;;;;;;;6.95;1.90;;;;;;;;;;5063933;28;20408;-82
2023/03/07 09:47:46;;;;;;;10.32;2.10;;;;;;;;;;5064904;28;20435;-82
2023/03/07 09:50:14;;;;;;;3.83;1.67;;;;;;;;;;5063591;28;20417;-83
2023/03/07 09:52:43;;;;;;;6.60;1.80;;;;;;;;;;5064871;28;20440;-82
2023/03/07 09:55:11;;;;;;;7.20;1.70;;;;;;;;;;5063357;28;20413;-82
2023/03/07 09:57:41;;;;;;;11.10;2.20;;;;;;;;;;5058832;28;20784;-82
2023/03/07 10:00:17;;;;;;;6.13;2.50;;;;;;;;;;5062596;28;20916;-82
2023/03/07 10:02:49;;;;;;;6.85;2.20;;;;;;;;;;5064208;28;20427;-82
2023/03/07 10:05:23;;;;;;;6.70;1.73;;;;;;;;;;5062235;28;20421;-82
2023/03/07 10:07:51;;;;;;;6.80;2.03;;;;;;;;;;5062905;28;20409;-81
2023/03/07 10:10:20;;;;;;;4.68;1.50;;;;;;;;;;5063738;28;20427;-82
2023/03/07 10:12:52;;;;;;;9.50;2.57;;;;;;;;;;5064905;28;20909;-83
2023/03/07 10:15:25;;;;;;;8.13;2.00;;;;;;;;;;5066193;28;20844;-82
2023/03/07 10:17:59;;;;;;;7.53;1.77;;;;;;;;;;5068290;28;20425;-82
2023/03/07 10:20:31;;;;;;;10.63;2.15;;;;;;;;;;5067475;28;20444;-82
2023/03/07 10:23:05;;;;;;;6.63;1.90;;;;;;;;;;5067635;28;20431;-82
2023/03/07 10:25:34;;;;;;;7.75;1.88;;;;;;;;;;5068441;28;20418;-83
2023/03/07 10:28:01;;;;;;;5.13;1.80;;;;;;;;;;5069147;28;20880;-82
2023/03/07 10:30:31;;;;;;;5.78;2.10;;;;;;;;;;5067252;28;20419;-82
2023/03/07 10:32:59;;;;;;;13.05;2.13;;;;;;;;;;5064636;28;20917;-83
2023/03/07 10:35:36;;;;;;;6.22;1.80;;;;;;;;;;5065630;28;21070;-82
2023/03/07 10:38:11;;;;;;;7.75;1.95;;;;;;;;;;5068168;28;20429;-82
2023/03/07 10:40:41;;;;;;;9.30;2.80;;;;;;;;;;5064960;28;20421;-82
2023/03/07 10:43:22;;;;;;;9.40;2.38;;;;;;;;;;5066426;28;20912;-82
2023/03/07 10:45:52;;;;;;;8.05;2.00;;;;;;;;;;5066164;28;20419;-82
2023/03/07 10:48:20;;;;;;;10.40;2.10;;;;;;;;;;5062606;28;20438;-82
2023/03/07 10:50:52;;;;;;;9.60;2.13;;;;;;;;;;5065067;28;20422;-82
2023/03/07 10:53:34;;;;;;;8.32;1.80;;;;;;;;;;5065896;28;20434;-82
2023/03/07 10:56:13;;;;;;;9.00;2.23;;;;;;;;;;5063496;28;20436;-82
2023/03/07 10:58:40;;;;;;;6.30;1.73;;;;;;;;;;5062746;28;20512;-83
2023/03/07 11:01:18;;;;;;;8.00;1.95;;;;;;;;;;5063753;28;20477;-83
2023/03/07 11:03:45;;;;;;;7.00;1.90;;;;;;;;;;5069727;28;20480;-83
2023/03/07 11:06:25;;;;;;;9.27;2.30;;;;;;;;;;5063392;28;20422;-81
2023/03/07 11:08:54;;;;;;;6.63;1.90;;;;;;;;;;5063117;28;20428;-82
2023/03/07 11:11:22;;;;;;;6.70;2.00;;;;;;;;;;5065640;28;20419;-82
2023/03/07 11:14:03;;;;;;;6.87;1.90;;;;;;;;;;5064094;28;20489;-82
2023/03/07 11:16:30;;;;;;;8.23;2.50;;;;;;;;;;5067632;28;20408;-83
2023/03/07 11:18:57;;;;;;;11.45;2.85;;;;;;;;;;5068366;28;20419;-82
2023/03/07 11:21:29;;;;;;;5.47;2.00;;;;;;;;;;5066752;28;20511;-82
2023/03/07 11:24:00;;;;;;;7.63;2.47;;;;;;;;;;5067496;28;20932;-81
2023/03/07 11:26:26;;;;;;;8.98;2.83;;;;;;;;;;5063340;28;20421;-83
2023/03/07 11:29:04;;;;;;;5.40;1.60;;;;;;;;;;5066830;28;20423;-83
2023/03/07 11:31:32;;;;;;;8.35;2.67;;;;;;;;;;5067045;28;20420;-81
2023/03/07 11:34:01;;;;;;;9.37;2.70;;;;;;;;;;5066910;28;20409;-82
2023/03/07 11:36:30;;;;;;;5.43;1.95;;;;;;;;;;5064472;28;20419;-83
2023/03/07 11:39:00;;;;;;;6.78;2.55;;;;;;;;;;5064015;28;20440;-83
2023/03/07 11:41:29;;;;;;;7.20;1.80;;;;;;;;;;5068102;28;20482;-82
2023/03/07 11:44:00;;;;;;;12.50;2.88;;;;;;;;;;5069072;28;20425;-83
2023/03/07 11:46:29;;;;;;;7.43;2.37;;;;;;;;;;5064106;28;20815;-84
2023/03/07 11:49:03;;;;;;;6.85;2.40;;;;;;;;;;5062384;28;20413;-83
2023/03/07 11:51:34;;;;;;;7.03;2.30;;;;;;;;;;5063983;28;20439;-82
2023/03/07 11:54:03;;;;;;;10.10;2.40;;;;;;;;;;5062429;28;20417;-82
2023/03/07 11:56:34;;;;;;;5.15;1.40;;;;;;;;;;5066838;28;20411;-80
2023/03/07 11:59:12;;;;;;;7.30;1.80;;;;;;;;;;5067195;28;20425;-80
2023/03/07 12:01:43;;;;;;;5.00;2.05;;;;;;;;;;5064442;28;20417;-82
2023/03/07 12:04:29;;;;;;;5.10;1.73;;;;;;;;;;5065049;28;20419;-83
2023/03/07 12:07:00;;;;;;;10.48;2.40;;;;;;;;;;5064710;28;20430;-82
2023/03/07 12:09:33;;;;;;;14.02;2.30;;;;;;;;;;5066193;28;20411;-82
2023/03/07 12:12:20;;;;;;;8.82;2.28;;;;;;;;;;5064896;28;20421;-81
2023/03/07 12:14:52;;;;;;;7.28;1.70;;;;;;;;;;5063911;28;20411;-82
2023/03/07 12:17:24;;;;;;;4.75;1.40;;;;;;;;;;5067455;28;20416;-82
2023/03/07 12:20:15;;;;;;;7.65;1.67;;;;;;;;;;5063681;28;20430;-81
2023/03/07 12:22:46;;;;;;;12.00;2.38;;;;;;;;;;5066544;28;20418;-81
2023/03/07 12:25:24;;;;;;;11.95;2.30;;;;;;;;;;5061682;28;20412;-82
2023/03/07 12:27:53;;;;;;;10.05;2.42;;;;;;;;;;5064927;28;20427;-82
2023/03/07 12:30:25;;;;;;;6.10;2.10;;;;;;;;;;5062394;28;20418;-82
2023/03/07 12:32:52;;;;;;;5.93;2.10;;;;;;;;;;5062788;28;20473;-82
2023/03/07 12:35:23;;;;;;;9.40;2.20;;;;;;;;;;5063174;28;20432;-82
2023/03/07 12:37:53;;;;;;;5.43;1.70;;;;;;;;;;5067317;28;20428;-82
2023/03/07 12:40:20;;;;;;;5.55;1.60;;;;;;;;;;5060424;28;20427;-82
2023/03/07 12:42:50;;;;;;;6.53;1.67;;;;;;;;;;5062972;28;20435;-81
2023/03/07 12:45:18;;;;;;;7.13;1.65;;;;;;;;;;5062947;28;20793;-82
2023/03/07 12:47:51;;;;;;;6.00;2.03;;;;;;;;;;5060890;28;20467;-81
2023/03/07 12:50:21;;;;;;;4.55;1.50;;;;;;;;;;5066255;28;20428;-82
2023/03/07 12:52:50;;;;;;;6.38;2.00;;;;;;;;;;5066262;28;20429;-82
2023/03/07 12:55:22;;;;;;;7.68;1.58;;;;;;;;;;5064844;28;20429;-81
2023/03/07 12:57:53;;;;;;;3.90;1.40;;;;;;;;;;5061984;28;20404;-82
2023/03/07 13:00:21;;;;;;;11.33;1.90;;;;;;;;;;5067556;28;20556;-80
2023/03/07 13:02:52;;;;;;;3.10;1.40;;;;;;;;;;5063670;28;21087;-82
2023/03/07 13:05:20;;;;;;;8.48;2.05;;;;;;;;;;5064899;28;20787;-82
2023/03/07 13:07:49;;;;;;;3.70;1.30;;;;;;;;;;5062989;28;20485;-82
2023/03/07 13:10:17;;;;;;;5.03;1.80;;;;;;;;;;5064167;28;20655;-80
2023/03/07 13:12:44;;;;;;;5.63;1.90;;;;;;;;;;5061382;28;20488;-82
2023/03/07 13:15:42;;;;;;;4.03;1.30;;;;;;;;;;5060330;28;20421;-82
2023/03/07 13:18:24;;;;;;;5.37;1.50;;;;;;;;;;5058729;28;20431;-82
2023/03/07 13:21:06;;;;;;;5.07;1.50;;;;;;;;;;5063704;28;20420;-82
2023/03/07 13:23:32;;;;;;;4.57;1.45;;;;;;;;;;5061560;28;20419;-82
2023/03/07 13:25:59;;;;;;;6.30;1.67;;;;;;;;;;5062181;28;20416;-82
2023/03/07 13:28:45;;;;;;;2.70;1.00;;;;;;;;;;5064735;28;20418;-81
2023/03/07 13:31:35;;;;;;;1.85;0.88;;;;;;;;;;5059764;28;20411;-82
2023/03/07 13:34:19;;;;;;;6.70;1.40;;;;;;;;;;5060783;28;20409;-82
2023/03/07 13:36:47;;;;;;;4.30;1.30;;;;;;;;;;5052258;28;20413;-80
2023/03/07 13:39:32;;;;;;;2.80;1.67;;;;;;;;;;5064448;28;20403;-82
2023/03/07 13:41:58;;;;;;;7.05;1.67;;;;;;;;;;5063888;28;20454;-83
2023/03/07 13:44:27;;;;;;;4.63;1.05;;;;;;;;;;5061156;28;20423;-80
2023/03/07 13:47:00;;;;;;;6.85;1.60;;;;;;;;;;5062783;28;20421;-80
2023/03/07 13:49:40;;;;;;;4.47;1.50;;;;;;;;;;5062412;28;20455;-81
2023/03/07 13:52:25;;;;;;;8.07;1.83;;;;;;;;;;5046018;28;20436;-81
2023/03/07 13:54:53;;;;;;;5.53;1.30;;;;;;;;;;5045246;28;20433;-81
2023/03/07 13:57:21;;;;;;;4.90;1.30;;;;;;;;;;5041102;28;20418;-81
2023/03/07 13:59:48;;;;;;;6.13;1.80;;;;;;;;;;5045504;28;20427;-80
2023/03/07 14:02:16;;;;;;;8.60;2.10;;;;;;;;;;5049936;28;20260;-80
2023/03/07 14:04:44;;;;;;;4.27;1.17;;;;;;;;;;5043584;28;20475;-80
2023/03/07 14:07:15;;;;;;;6.33;1.20;;;;;;;;;;5047036;28;20525;-81
2023/03/07 14:09:46;;;;;;;6.60;1.63;;;;;;;;;;5044848;28;20447;-82
2023/03/07 14:12:18;;;;;;;5.70;1.40;;;;;;;;;;5044990;28;20443;-80
2023/03/07 14:14:54;;;;;;;2.50;0.87;;;;;;;;;;5047315;28;20822;-80
2023/03/07 14:17:30;;;;;;;5.70;0.90;;;;;;;;;;5047048;28;20766;-80
2023/03/07 14:20:00;;;;;;;6.10;1.20;;;;;;;;;;5041707;28;20244;-80
2023/03/07 14:22:35;;;;;;;1.67;1.00;;;;;;;;;;5044889;28;20455;-81
2023/03/07 14:25:08;;;;;;;6.03;1.00;;;;;;;;;;5046037;28;20472;-80
2023/03/07 14:27:47;;;;;;;2.20;0.70;;;;;;;;;;5047175;28;20484;-80
2023/03/07 14:30:15;;;;;;;2.83;0.50;;;;;;;;;;5043828;28;20486;-80
2023/03/07 14:32:41;;;;;;;2.97;0.90;;;;;;;;;;5042603;28;20828;-80
2023/03/07 14:35:14;;;;;;;6.93;1.20;;;;;;;;;;5046199;28;20472;-80
2023/03/07 14:37:40;;;;;;;1.07;0.50;;;;;;;;;;5049174;28;20457;-81
2023/03/07 14:40:19;;;;;;;3.67;1.17;;;;;;;;;;5046590;28;21011;-80
2023/03/07 14:42:47;;;;;;;1.37;0.63;;;;;;;;;;5045706;28;20797;-81
2023/03/07 14:45:17;;;;;;;4.20;0.80;;;;;;;;;;5045683;28;21001;-80